BEG airport status
LYBE 041130Z VRB05KT CAVOK 31/18 Q1013 NOSIG

Izdvajamo

Vazdušna konjica Ministarstva unutrašnjih poslova – Vatrogasci iz helikoptera

Vazdušna konjica Ministarstva unutrašnjih poslova – Vatrogasci iz helikoptera

Na kraju leta 2012. godine Srbija je izgubila preko 10.000 hektara šuma. Tada je ugašeno više od stotinu požara korist...

0 komentara Pročitaj više
NAJAVA: Trstenik domaćin prvenstava u preciznom i aero-reli letenju

NAJAVA: Trstenik domaćin prvenstava u preciznom i aero-reli letenju

Opština Trstenik i aeroklub u ovom gradu domaćini su 22. prvenstva Srbije u preciznom letenju i 38. državnog takmičenj...

0 komentara Pročitaj više
SIAF-2015: aeromiting na slovački način

SIAF-2015: aeromiting na slovački način

Proteklog vikenda slovačka vojna vazduhoplovna baza Sliač bila je domaćin pete uzastopne manifestacije Međunarodni let...

0 komentara Pročitaj više
Er Srbija otvara „Premijum salon“ na beogradskom aerodromu

Er Srbija otvara „Premijum salon“ na beogradskom aerodromu

Kompanija Er Srbija (Air Serbia) otvoriće svoj business lounge (poslovni salon) na Aerodromu Nikola Tesla. Svečano otvar...

0 komentara Pročitaj više